Time;durP1;ratioP1;P1;durP2;ratioP2;P2;SDS_P1;SDS_P2;PMS_P1;PMS_P2;Temp;Humidity;BMP_temperature;BMP_pressure;BME280_temperature;BME280_humidity;BME280_pressure;Samples;Min_cycle;Max_cycle;Signal;HPM_P1;HPM_P2
2023/09/23 00:00:23;;;;;;;;;;;23.50;71.70;;;;;;5092843;28;19959;-47
2023/09/23 00:02:49;;;;;;;;;;;23.50;71.60;;;;;;5098654;28;19919;-47
2023/09/23 00:05:16;;;;;;;;;;;23.50;71.80;;;;;;5094882;28;19911;-46
2023/09/23 00:07:42;;;;;;;;;;;23.50;71.80;;;;;;5103666;28;19943;-46
2023/09/23 00:10:09;;;;;;;;;;;23.50;71.80;;;;;;5103153;28;19920;-48
2023/09/23 00:12:35;;;;;;;;;;;23.50;72.00;;;;;;5099124;28;19962;-47
2023/09/23 00:15:03;;;;;;;;;;;23.50;72.30;;;;;;5100211;28;19912;-46
2023/09/23 00:17:29;;;;;;;;;;;23.50;72.50;;;;;;5103156;28;19912;-46
2023/09/23 00:19:56;;;;;;;;;;;23.50;72.90;;;;;;5103973;28;19912;-47
2023/09/23 00:22:22;;;;;;;;;;;23.50;73.50;;;;;;5102292;28;19916;-46
2023/09/23 00:24:48;;;;;;;;;;;23.50;73.70;;;;;;5097592;28;19908;-46
2023/09/23 00:27:15;;;;;;;;;;;23.40;73.80;;;;;;5101037;28;19911;-49
2023/09/23 00:29:40;;;;;;;;;;;23.50;73.60;;;;;;5098225;28;20375;-46
2023/09/23 00:32:06;;;;;;;;;;;23.40;73.50;;;;;;5099900;28;19916;-48
2023/09/23 00:34:32;;;;;;;;;;;23.40;73.40;;;;;;5077558;28;19930;-46
2023/09/23 00:36:58;;;;;;;;;;;23.40;73.30;;;;;;5103552;28;19918;-47
2023/09/23 00:39:24;;;;;;;;;;;23.40;73.30;;;;;;5103094;28;19923;-47
2023/09/23 00:41:51;;;;;;;;;;;23.40;73.30;;;;;;5095074;28;20273;-46
2023/09/23 00:44:17;;;;;;;;;;;23.40;73.40;;;;;;5103276;28;19915;-46
2023/09/23 00:46:44;;;;;;;;;;;23.40;73.40;;;;;;5103809;28;19958;-47
2023/09/23 00:49:11;;;;;;;;;;;23.40;73.50;;;;;;5103351;28;19920;-47
2023/09/23 00:51:37;;;;;;;;;;;23.40;73.50;;;;;;5103234;28;19928;-46
2023/09/23 00:54:10;;;;;;;;;;;23.40;73.80;;;;;;5085205;28;20432;-47
2023/09/23 00:56:36;;;;;;;;;;;23.40;73.90;;;;;;5095580;28;19916;-46
2023/09/23 00:59:06;;;;;;;;;;;23.40;74.00;;;;;;5108953;28;19983;-47
2023/09/23 01:01:32;;;;;;;;;;;23.40;74.00;;;;;;5095765;28;19911;-47
2023/09/23 01:03:58;;;;;;;;;;;23.30;74.00;;;;;;5102571;28;19912;-46
2023/09/23 01:06:27;;;;;;;;;;;23.40;74.00;;;;;;5103065;28;19926;-49
2023/09/23 01:08:54;;;;;;;;;;;23.30;73.70;;;;;;5104837;28;19916;-46
2023/09/23 01:11:20;;;;;;;;;;;23.30;73.50;;;;;;5101441;28;19938;-46
2023/09/23 01:13:50;;;;;;;;;;;23.30;73.30;;;;;;5079416;28;19952;-46
2023/09/23 01:16:17;;;;;;;;;;;23.30;73.30;;;;;;5100592;28;19919;-47
2023/09/23 01:18:48;;;;;;;;;;;23.30;73.20;;;;;;5102081;28;19912;-46
2023/09/23 01:21:15;;;;;;;;;;;23.30;73.20;;;;;;5108128;28;19911;-49
2023/09/23 01:23:43;;;;;;;;;;;23.30;73.20;;;;;;5105716;28;19918;-47
2023/09/23 01:26:11;;;;;;;;;;;23.30;73.20;;;;;;5102229;28;19975;-47
2023/09/23 01:28:37;;;;;;;;;;;23.30;73.20;;;;;;5102882;28;19912;-46
2023/09/23 01:31:04;;;;;;;;;;;23.30;73.20;;;;;;5100074;28;19920;-46
2023/09/23 01:33:30;;;;;;;;;;;23.30;73.30;;;;;;5107569;28;19912;-46
2023/09/23 01:36:02;;;;;;;;;;;23.30;73.60;;;;;;5101363;28;19923;-46
2023/09/23 01:38:46;;;;;;;;;;;23.30;73.60;;;;;;5020100;28;19917;-46
2023/09/23 01:41:12;;;;;;;;;;;23.30;73.70;;;;;;5019145;28;20000;-46
2023/09/23 01:43:37;;;;;;;;;;;23.20;73.70;;;;;;5019847;28;19910;-46
2023/09/23 01:46:06;;;;;;;;;;;23.20;73.70;;;;;;5012071;28;19984;-47
2023/09/23 01:48:32;;;;;;;;;;;23.20;73.70;;;;;;5020170;28;19909;-46
2023/09/23 01:51:04;;;;;;;;;;;23.20;73.50;;;;;;5019104;28;19921;-47
2023/09/23 01:53:32;;;;;;;;;;;23.20;73.30;;;;;;5020124;28;19913;-47
2023/09/23 01:55:57;;;;;;;;;;;23.20;73.40;;;;;;5019226;28;19920;-46
2023/09/23 01:58:23;;;;;;;;;;;23.20;73.30;;;;;;5042065;28;19921;-47
2023/09/23 02:00:54;;;;;;;;;;;23.20;73.30;;;;;;5032528;28;19915;-47
2023/09/23 02:03:22;;;;;;;;;;;23.20;73.20;;;;;;5038649;28;19976;-46
2023/09/23 02:05:48;;;;;;;;;;;23.20;73.30;;;;;;5039520;28;19920;-46
2023/09/23 02:08:15;;;;;;;;;;;23.20;73.30;;;;;;5038339;28;19913;-46
2023/09/23 02:10:45;;;;;;;;;;;23.20;73.50;;;;;;5039598;28;19935;-47
2023/09/23 02:13:11;;;;;;;;;;;23.20;73.60;;;;;;5031048;28;19941;-47
2023/09/23 02:15:38;;;;;;;;;;;23.10;73.50;;;;;;5062691;28;19908;-48
2023/09/23 02:18:04;;;;;;;;;;;23.10;73.60;;;;;;5114879;28;19918;-47
2023/09/23 02:20:30;;;;;;;;;;;23.10;73.80;;;;;;5106661;28;19993;-49
2023/09/23 02:22:56;;;;;;;;;;;23.10;73.60;;;;;;5125610;27;20359;-47
2023/09/23 02:25:25;;;;;;;;;;;23.10;73.80;;;;;;5125813;28;19916;-47
2023/09/23 02:27:51;;;;;;;;;;;23.10;73.80;;;;;;5102126;28;19931;-46
2023/09/23 02:30:17;;;;;;;;;;;23.10;73.70;;;;;;5117110;28;19912;-46
2023/09/23 02:32:49;;;;;;;;;;;23.10;73.60;;;;;;5108364;28;20355;-47
2023/09/23 02:35:15;;;;;;;;;;;23.10;73.60;;;;;;5116836;28;19975;-47
2023/09/23 02:37:42;;;;;;;;;;;23.00;73.50;;;;;;5113121;28;19911;-46
2023/09/23 02:40:12;;;;;;;;;;;23.00;73.50;;;;;;5123017;28;19943;-48
2023/09/23 02:42:39;;;;;;;;;;;23.00;73.70;;;;;;5095887;28;19908;-47
2023/09/23 02:45:06;;;;;;;;;;;23.00;73.60;;;;;;5114411;28;19908;-46
2023/09/23 02:47:32;;;;;;;;;;;23.00;73.70;;;;;;5125498;27;19907;-46
2023/09/23 02:49:58;;;;;;;;;;;23.00;73.80;;;;;;5118255;28;19920;-46
2023/09/23 02:52:25;;;;;;;;;;;23.00;73.80;;;;;;5126226;28;19911;-46
2023/09/23 02:54:54;;;;;;;;;;;22.90;73.80;;;;;;5117735;28;20061;-47
2023/09/23 02:57:20;;;;;;;;;;;22.90;73.80;;;;;;5114844;28;19927;-47
2023/09/23 02:59:53;;;;;;;;;;;22.90;73.90;;;;;;5115231;28;19916;-46
2023/09/23 03:02:23;;;;;;;;;;;22.90;74.00;;;;;;5124193;27;19915;-46
2023/09/23 03:04:58;;;;;;;;;;;22.90;74.10;;;;;;5126329;27;19961;-46
2023/09/23 03:07:32;;;;;;;;;;;22.90;74.10;;;;;;5125087;27;19908;-46
2023/09/23 03:10:01;;;;;;;;;;;22.90;74.10;;;;;;5110577;28;19998;-47
2023/09/23 03:12:40;;;;;;;;;;;22.90;74.10;;;;;;5114946;28;20003;-47
2023/09/23 03:15:14;;;;;;;;;;;22.90;74.70;;;;;;5107159;27;19912;-46
2023/09/23 03:17:42;;;;;;;;;;;22.80;73.80;;;;;;5130151;27;20439;-45
2023/09/23 03:20:21;;;;;;;;;;;22.80;74.00;;;;;;5117252;28;19914;-47
2023/09/23 03:22:50;;;;;;;;;;;22.80;74.00;;;;;;5125464;28;19911;-46
2023/09/23 03:25:20;;;;;;;;;;;22.80;74.20;;;;;;5116723;28;19930;-46
2023/09/23 03:27:50;;;;;;;;;;;22.80;74.10;;;;;;5120163;28;19918;-46
2023/09/23 03:30:16;;;;;;;;;;;22.80;74.20;;;;;;5121942;27;20522;-46
2023/09/23 03:32:43;;;;;;;;;;;22.80;74.30;;;;;;5122384;28;19947;-47
2023/09/23 03:35:14;;;;;;;;;;;22.80;74.30;;;;;;5116477;28;19976;-46
2023/09/23 03:37:40;;;;;;;;;;;22.80;74.40;;;;;;5124599;28;19912;-46
2023/09/23 03:40:07;;;;;;;;;;;22.80;74.40;;;;;;5117445;27;19935;-46
2023/09/23 03:42:34;;;;;;;;;;;22.70;74.30;;;;;;5123986;28;19915;-46
2023/09/23 03:45:00;;;;;;;;;;;22.70;74.50;;;;;;5126290;27;20272;-46
2023/09/23 03:47:26;;;;;;;;;;;22.70;74.40;;;;;;5124740;28;19930;-46
2023/09/23 03:49:52;;;;;;;;;;;22.70;74.30;;;;;;5118351;27;19923;-46
2023/09/23 03:52:17;;;;;;;;;;;22.70;74.20;;;;;;5125438;27;19912;-46
2023/09/23 03:54:43;;;;;;;;;;;22.70;74.20;;;;;;5114289;28;20264;-46
2023/09/23 03:57:09;;;;;;;;;;;22.70;74.30;;;;;;5127370;27;19972;-46
2023/09/23 03:59:36;;;;;;;;;;;22.70;74.30;;;;;;5124981;28;19922;-46
2023/09/23 04:02:01;;;;;;;;;;;22.70;74.30;;;;;;5123502;28;19908;-49
2023/09/23 04:04:27;;;;;;;;;;;22.60;74.20;;;;;;5116470;28;19912;-46
2023/09/23 04:06:53;;;;;;;;;;;22.60;74.40;;;;;;5123122;28;20269;-47
2023/09/23 04:09:19;;;;;;;;;;;22.60;74.40;;;;;;5122184;28;19926;-47
2023/09/23 04:11:46;;;;;;;;;;;22.60;74.50;;;;;;5123986;28;20014;-47
2023/09/23 04:14:12;;;;;;;;;;;22.60;74.60;;;;;;5123398;28;19907;-45
2023/09/23 04:16:38;;;;;;;;;;;22.60;74.60;;;;;;5123186;28;19982;-46
2023/09/23 04:19:04;;;;;;;;;;;22.60;74.50;;;;;;5123371;28;19915;-44
2023/09/23 04:21:31;;;;;;;;;;;22.60;74.60;;;;;;5113419;28;19908;-47
2023/09/23 04:24:00;;;;;;;;;;;22.60;74.70;;;;;;5113112;28;19915;-45
2023/09/23 04:26:26;;;;;;;;;;;22.60;74.80;;;;;;5121197;27;19915;-45
2023/09/23 04:28:52;;;;;;;;;;;22.50;74.60;;;;;;5123420;28;19911;-46
2023/09/23 04:31:18;;;;;;;;;;;22.50;74.60;;;;;;5121415;27;19920;-44
2023/09/23 04:33:45;;;;;;;;;;;22.50;74.50;;;;;;5116413;28;19961;-43
2023/09/23 04:36:12;;;;;;;;;;;22.50;74.60;;;;;;5119680;28;19908;-48
2023/09/23 04:38:38;;;;;;;;;;;22.50;74.60;;;;;;5122148;28;19922;-45
2023/09/23 04:41:05;;;;;;;;;;;22.50;74.70;;;;;;5123120;28;19991;-47
2023/09/23 04:43:31;;;;;;;;;;;22.50;74.50;;;;;;5121846;28;19966;-45
2023/09/23 04:45:57;;;;;;;;;;;22.50;74.60;;;;;;5112657;27;19951;-46
2023/09/23 04:48:26;;;;;;;;;;;22.50;74.70;;;;;;5124074;27;19961;-46
2023/09/23 04:50:55;;;;;;;;;;;22.50;74.70;;;;;;5120923;28;19966;-47
2023/09/23 04:53:21;;;;;;;;;;;22.40;74.80;;;;;;5118262;27;20001;-45
2023/09/23 04:55:47;;;;;;;;;;;22.50;74.70;;;;;;5123483;28;19907;-45
2023/09/23 04:58:13;;;;;;;;;;;22.40;74.60;;;;;;5122559;28;19927;-48
2023/09/23 05:00:39;;;;;;;;;;;22.40;74.60;;;;;;5123142;27;19919;-46
2023/09/23 05:03:05;;;;;;;;;;;22.40;74.70;;;;;;5121092;27;20017;-45
2023/09/23 05:05:31;;;;;;;;;;;22.40;74.70;;;;;;5124661;27;19989;-46
2023/09/23 05:07:59;;;;;;;;;;;22.40;74.70;;;;;;5110223;27;19925;-45
2023/09/23 05:10:26;;;;;;;;;;;22.40;74.90;;;;;;5117197;28;20257;-45
2023/09/23 05:12:56;;;;;;;;;;;22.40;74.90;;;;;;5123125;28;19915;-45
2023/09/23 05:15:24;;;;;;;;;;;22.40;74.80;;;;;;5122698;28;19915;-46
2023/09/23 05:17:50;;;;;;;;;;;22.30;74.90;;;;;;5118865;28;19974;-45
2023/09/23 05:20:19;;;;;;;;;;;22.30;74.90;;;;;;5115913;28;19908;-47
2023/09/23 05:22:46;;;;;;;;;;;22.40;75.00;;;;;;5122503;28;19957;-45
2023/09/23 05:25:12;;;;;;;;;;;22.30;75.00;;;;;;5118160;28;19916;-45
2023/09/23 05:27:38;;;;;;;;;;;22.30;75.00;;;;;;5119978;28;19955;-46
2023/09/23 05:30:07;;;;;;;;;;;22.30;75.00;;;;;;5123049;28;19916;-46
2023/09/23 05:32:33;;;;;;;;;;;22.30;75.10;;;;;;5111484;28;19915;-45
2023/09/23 05:35:01;;;;;;;;;;;22.30;75.00;;;;;;5119665;28;20030;-45
2023/09/23 05:37:27;;;;;;;;;;;22.30;75.00;;;;;;5116530;28;19962;-46
2023/09/23 05:39:53;;;;;;;;;;;22.30;75.10;;;;;;5119053;28;20319;-45
2023/09/23 05:42:23;;;;;;;;;;;22.30;75.10;;;;;;5122662;28;19911;-45
2023/09/23 05:44:49;;;;;;;;;;;22.30;75.20;;;;;;5120671;28;19912;-45
2023/09/23 05:47:15;;;;;;;;;;;22.30;75.20;;;;;;5115454;28;19934;-45
2023/09/23 05:49:42;;;;;;;;;;;22.30;75.20;;;;;;5122051;28;19912;-45
2023/09/23 05:52:10;;;;;;;;;;;22.20;75.30;;;;;;5120327;28;19916;-45
2023/09/23 05:54:36;;;;;;;;;;;22.20;75.30;;;;;;5114415;28;20257;-45
2023/09/23 05:57:02;;;;;;;;;;;22.20;75.30;;;;;;5093785;28;19945;-47
2023/09/23 05:59:28;;;;;;;;;;;22.20;75.30;;;;;;5115149;28;20038;-45
2023/09/23 06:01:54;;;;;;;;;;;22.20;75.30;;;;;;5120345;27;19930;-45
2023/09/23 06:04:19;;;;;;;;;;;22.20;75.30;;;;;;5126314;28;19918;-45
2023/09/23 06:06:45;;;;;;;;;;;22.20;75.40;;;;;;5106553;28;19912;-46
2023/09/23 06:09:11;;;;;;;;;;;22.20;75.30;;;;;;5122520;28;19903;-45
2023/09/23 06:11:37;;;;;;;;;;;22.20;75.50;;;;;;5126382;27;19919;-45
2023/09/23 06:14:03;;;;;;;;;;;22.10;75.40;;;;;;5126111;28;19930;-46
2023/09/23 06:16:29;;;;;;;;;;;22.10;75.40;;;;;;5125117;28;19911;-47
2023/09/23 06:18:55;;;;;;;;;;;22.10;75.40;;;;;;5124680;28;19908;-45
2023/09/23 06:21:21;;;;;;;;;;;22.10;75.50;;;;;;5123176;28;19943;-46
2023/09/23 06:23:47;;;;;;;;;;;22.10;75.40;;;;;;5123426;28;19926;-45
2023/09/23 06:26:13;;;;;;;;;;;22.10;75.50;;;;;;5125609;28;19945;-45
2023/09/23 06:28:38;;;;;;;;;;;22.10;75.50;;;;;;5122753;28;20730;-46
2023/09/23 06:31:06;;;;;;;;;;;22.10;75.60;;;;;;5130226;27;19916;-45
2023/09/23 06:33:32;;;;;;;;;;;22.10;75.60;;;;;;5107043;28;19911;-45
2023/09/23 06:36:04;;;;;;;;;;;22.10;75.70;;;;;;5124211;28;19907;-46
2023/09/23 06:38:31;;;;;;;;;;;22.10;75.70;;;;;;5125021;28;19915;-45
2023/09/23 06:40:57;;;;;;;;;;;22.10;75.80;;;;;;5105502;28;19908;-45
2023/09/23 06:43:22;;;;;;;;;;;22.10;75.80;;;;;;5125861;27;19981;-46
2023/09/23 06:45:58;;;;;;;;;;;22.00;75.80;;;;;;5124521;28;19915;-45
2023/09/23 06:48:24;;;;;;;;;;;22.00;75.80;;;;;;5123622;27;19918;-45
2023/09/23 06:50:59;;;;;;;;;;;22.00;75.80;;;;;;5120847;27;19911;-46
2023/09/23 06:53:25;;;;;;;;;;;22.00;75.90;;;;;;5117619;28;19912;-47
2023/09/23 06:55:51;;;;;;;;;;;22.00;75.90;;;;;;5125486;28;19929;-45
2023/09/23 06:58:17;;;;;;;;;;;22.00;75.80;;;;;;5131964;27;19995;-46
2023/09/23 07:00:43;;;;;;;;;;;22.00;75.90;;;;;;5106880;28;19915;-45
2023/09/23 07:03:09;;;;;;;;;;;22.00;75.90;;;;;;5114300;28;19941;-45
2023/09/23 07:05:34;;;;;;;;;;;22.00;75.90;;;;;;5120087;28;19911;-45
2023/09/23 07:08:01;;;;;;;;;;;22.00;75.90;;;;;;5124581;28;19971;-46
2023/09/23 07:10:27;;;;;;;;;;;22.00;75.90;;;;;;5126171;27;19983;-44
2023/09/23 07:12:53;;;;;;;;;;;22.00;75.90;;;;;;5125443;28;19931;-45
2023/09/23 07:15:19;;;;;;;;;;;21.90;76.00;;;;;;5125989;27;19957;-46
2023/09/23 07:17:45;;;;;;;;;;;21.90;76.00;;;;;;5124740;28;19912;-45
2023/09/23 07:20:11;;;;;;;;;;;21.90;76.00;;;;;;5122761;27;19908;-45
2023/09/23 07:22:37;;;;;;;;;;;21.90;76.00;;;;;;5125659;28;19908;-46
2023/09/23 07:25:04;;;;;;;;;;;21.90;76.00;;;;;;5124145;28;19916;-45
2023/09/23 07:27:30;;;;;;;;;;;21.90;76.00;;;;;;5124831;28;19947;-45
2023/09/23 07:29:56;;;;;;;;;;;21.90;76.10;;;;;;5120572;28;19947;-45
2023/09/23 07:32:22;;;;;;;;;;;21.90;76.20;;;;;;5121856;28;19927;-45
2023/09/23 07:34:48;;;;;;;;;;;21.90;76.10;;;;;;5121307;28;19912;-46
2023/09/23 07:37:14;;;;;;;;;;;21.90;76.10;;;;;;5109225;28;19918;-44
2023/09/23 07:39:40;;;;;;;;;;;21.90;76.10;;;;;;5123017;28;20279;-44
2023/09/23 07:42:06;;;;;;;;;;;21.90;76.10;;;;;;5116030;27;19914;-45
2023/09/23 07:44:32;;;;;;;;;;;21.80;76.10;;;;;;5124577;27;19998;-45
2023/09/23 07:46:58;;;;;;;;;;;21.80;76.80;;;;;;5120731;27;19912;-45
2023/09/23 07:49:23;;;;;;;;;;;21.80;76.10;;;;;;5120839;27;19943;-45
2023/09/23 07:51:49;;;;;;;;;;;21.80;76.20;;;;;;5119697;27;19919;-45
2023/09/23 07:54:16;;;;;;;;;;;21.80;76.10;;;;;;5123850;28;19908;-45
2023/09/23 07:56:41;;;;;;;;;;;21.80;76.20;;;;;;5124054;28;19916;-45
2023/09/23 07:59:07;;;;;;;;;;;21.80;76.20;;;;;;5118670;28;19988;-45
2023/09/23 08:01:33;;;;;;;;;;;21.80;76.30;;;;;;5123156;27;20673;-46
2023/09/23 08:03:59;;;;;;;;;;;21.80;76.30;;;;;;5122851;28;19912;-45
2023/09/23 08:06:25;;;;;;;;;;;21.80;76.30;;;;;;5124294;27;19912;-45
2023/09/23 08:08:51;;;;;;;;;;;21.80;76.40;;;;;;5123308;28;19914;-44
2023/09/23 08:11:17;;;;;;;;;;;21.80;76.30;;;;;;5122689;28;20006;-46
2023/09/23 08:13:42;;;;;;;;;;;21.80;76.30;;;;;;5115979;28;19912;-46
2023/09/23 08:16:08;;;;;;;;;;;21.70;76.20;;;;;;5120110;27;20428;-48
2023/09/23 08:18:34;;;;;;;;;;;21.70;76.30;;;;;;5117578;28;19915;-45
2023/09/23 08:21:00;;;;;;;;;;;21.70;76.20;;;;;;5122788;28;19919;-44
2023/09/23 08:23:26;;;;;;;;;;;21.70;76.30;;;;;;5121860;28;20522;-45
2023/09/23 08:25:52;;;;;;;;;;;21.70;76.30;;;;;;5123656;28;20443;-45
2023/09/23 08:28:18;;;;;;;;;;;21.70;76.20;;;;;;5116271;28;19912;-45
2023/09/23 08:30:46;;;;;;;;;;;21.70;76.20;;;;;;5124170;28;19919;-45
2023/09/23 08:33:12;;;;;;;;;;;21.70;76.30;;;;;;5119096;28;19912;-44
2023/09/23 08:35:38;;;;;;;;;;;21.70;76.40;;;;;;5123663;28;19954;-45
2023/09/23 08:38:04;;;;;;;;;;;21.70;76.30;;;;;;5123818;28;19912;-45
2023/09/23 08:40:33;;;;;;;;;;;21.60;76.30;;;;;;5120823;28;19979;-45
2023/09/23 08:42:59;;;;;;;;;;;21.60;76.30;;;;;;5135201;27;20346;-45
2023/09/23 08:45:28;;;;;;;;;;;21.60;76.30;;;;;;5104481;28;19933;-46
2023/09/23 08:47:54;;;;;;;;;;;21.60;76.30;;;;;;5124137;27;19908;-44
2023/09/23 08:50:20;;;;;;;;;;;21.60;76.40;;;;;;5121827;28;20002;-46
2023/09/23 08:52:46;;;;;;;;;;;21.60;76.40;;;;;;5104076;28;19911;-46
2023/09/23 08:55:12;;;;;;;;;;;21.60;76.40;;;;;;5123515;28;19911;-44
2023/09/23 08:57:38;;;;;;;;;;;21.60;76.40;;;;;;5123042;28;19915;-44
2023/09/23 09:00:08;;;;;;;;;;;21.50;76.40;;;;;;5123656;28;19966;-44
2023/09/23 09:02:34;;;;;;;;;;;21.60;76.40;;;;;;5123231;27;19912;-44
2023/09/23 09:05:00;;;;;;;;;;;21.60;76.30;;;;;;5119838;28;19919;-44
2023/09/23 09:07:32;;;;;;;;;;;21.50;76.40;;;;;;5117733;28;19908;-44
2023/09/23 09:09:58;;;;;;;;;;;21.50;76.40;;;;;;5122949;28;20473;-45
2023/09/23 09:12:24;;;;;;;;;;;21.50;76.40;;;;;;5122739;28;19926;-45
2023/09/23 09:14:53;;;;;;;;;;;21.50;76.40;;;;;;5116621;28;19947;-45
2023/09/23 09:17:19;;;;;;;;;;;21.50;76.50;;;;;;5114035;28;19912;-44
2023/09/23 09:19:45;;;;;;;;;;;21.50;76.50;;;;;;5122919;28;19907;-46
2023/09/23 09:22:11;;;;;;;;;;;21.50;76.50;;;;;;5121713;28;20065;-46
2023/09/23 09:24:37;;;;;;;;;;;21.50;76.50;;;;;;5115710;28;19911;-45
2023/09/23 09:27:07;;;;;;;;;;;21.50;76.50;;;;;;5111778;28;19955;-45
2023/09/23 09:29:33;;;;;;;;;;;21.50;76.50;;;;;;5103367;28;19947;-45
2023/09/23 09:32:00;;;;;;;;;;;21.50;76.50;;;;;;5129056;27;20371;-45
2023/09/23 09:34:27;;;;;;;;;;;21.50;76.50;;;;;;5104148;28;19946;-45
2023/09/23 09:36:55;;;;;;;;;;;21.40;76.50;;;;;;5122453;28;19908;-44
2023/09/23 09:39:21;;;;;;;;;;;21.40;76.50;;;;;;5122733;28;19928;-44
2023/09/23 09:41:50;;;;;;;;;;;21.40;76.50;;;;;;5117654;28;19907;-45
2023/09/23 09:44:20;;;;;;;;;;;21.40;76.50;;;;;;5121401;28;19994;-44
2023/09/23 09:46:46;;;;;;;;;;;21.40;76.50;;;;;;5119675;28;19947;-44
2023/09/23 09:49:16;;;;;;;;;;;21.40;76.50;;;;;;5089269;28;19919;-44
2023/09/23 09:51:42;;;;;;;;;;;21.40;76.60;;;;;;5121485;28;20368;-44
2023/09/23 09:54:11;;;;;;;;;;;21.40;76.60;;;;;;5122139;28;19929;-44
2023/09/23 09:56:37;;;;;;;;;;;21.40;76.50;;;;;;5114045;28;20437;-45
2023/09/23 09:59:03;;;;;;;;;;;21.40;76.60;;;;;;5102772;28;19915;-44
2023/09/23 10:01:29;;;;;;;;;;;21.30;76.50;;;;;;5123477;28;19911;-44
2023/09/23 10:03:55;;;;;;;;;;;21.40;76.60;;;;;;5126861;28;19911;-45
2023/09/23 10:06:26;;;;;;;;;;;21.30;76.50;;;;;;5122584;28;19911;-44
2023/09/23 10:08:53;;;;;;;;;;;21.30;76.50;;;;;;5122600;28;19916;-44
2023/09/23 10:11:29;;;;;;;;;;;21.30;76.60;;;;;;5121249;28;19920;-44
2023/09/23 10:13:55;;;;;;;;;;;21.30;76.60;;;;;;5122189;28;19919;-44
2023/09/23 10:16:27;;;;;;;;;;;21.30;76.60;;;;;;5120924;28;19911;-44
2023/09/23 10:18:59;;;;;;;;;;;21.30;76.60;;;;;;5122103;28;19934;-45
2023/09/23 10:21:25;;;;;;;;;;;21.30;76.60;;;;;;5115590;28;19912;-45
2023/09/23 10:23:52;;;;;;;;;;;21.30;76.60;;;;;;5122345;28;19923;-45
2023/09/23 10:26:18;;;;;;;;;;;21.20;76.60;;;;;;5103888;28;19911;-44
2023/09/23 10:29:01;;;;;;;;;;;21.20;76.60;;;;;;5121781;28;19946;-45
2023/09/23 10:31:27;;;;;;;;;;;21.20;76.70;;;;;;5114001;28;19926;-44
2023/09/23 10:33:53;;;;;;;;;;;21.20;76.70;;;;;;5122080;28;20249;-45
2023/09/23 10:36:20;;;;;;;;;;;21.20;76.70;;;;;;5113348;28;19918;-44
2023/09/23 10:38:46;;;;;;;;;;;21.20;76.70;;;;;;5116405;28;20329;-44
2023/09/23 10:41:12;;;;;;;;;;;21.20;76.70;;;;;;5117432;28;19929;-45
2023/09/23 10:43:38;;;;;;;;;;;21.20;76.80;;;;;;5114563;28;19912;-44
2023/09/23 10:46:05;;;;;;;;;;;21.20;76.70;;;;;;5125750;28;19912;-44
2023/09/23 10:48:31;;;;;;;;;;;21.20;76.80;;;;;;5124762;27;19912;-44
2023/09/23 10:50:57;;;;;;;;;;;21.10;76.70;;;;;;5126065;28;19926;-44
2023/09/23 10:53:25;;;;;;;;;;;21.10;76.70;;;;;;5124843;28;19938;-44
2023/09/23 10:55:51;;;;;;;;;;;21.10;76.90;;;;;;5125347;28;19907;-44
2023/09/23 10:58:16;;;;;;;;;;;21.10;76.80;;;;;;5122757;28;19923;-44
2023/09/23 11:00:42;;;;;;;;;;;21.10;76.80;;;;;;5125761;27;19954;-43
2023/09/23 11:03:09;;;;;;;;;;;21.10;76.80;;;;;;5124330;28;19911;-44
2023/09/23 11:05:38;;;;;;;;;;;21.10;76.80;;;;;;5118836;28;19914;-43
2023/09/23 11:08:05;;;;;;;;;;;21.10;76.80;;;;;;5124838;28;20009;-44
2023/09/23 11:10:31;;;;;;;;;;;21.10;76.80;;;;;;5125456;28;19920;-43
2023/09/23 11:12:57;;;;;;;;;;;21.00;76.70;;;;;;5124610;27;19912;-44
2023/09/23 11:15:23;;;;;;;;;;;21.10;76.90;;;;;;5124370;28;19933;-44
2023/09/23 11:17:52;;;;;;;;;;;21.00;76.80;;;;;;5129530;27;19950;-44
2023/09/23 11:20:26;;;;;;;;;;;21.00;76.80;;;;;;5118457;28;19912;-43
2023/09/23 11:22:52;;;;;;;;;;;21.00;76.90;;;;;;5124491;28;20347;-43
2023/09/23 11:25:18;;;;;;;;;;;21.00;76.80;;;;;;5099453;28;19979;-45
2023/09/23 11:27:47;;;;;;;;;;;21.00;76.90;;;;;;5140470;27;20581;-47
2023/09/23 11:30:13;;;;;;;;;;;21.00;76.90;;;;;;5124646;28;19923;-44
2023/09/23 11:32:39;;;;;;;;;;;21.00;76.90;;;;;;5129531;27;19916;-44
2023/09/23 11:35:06;;;;;;;;;;;21.00;76.90;;;;;;5118108;27;19907;-44
2023/09/23 11:37:32;;;;;;;;;;;20.90;76.90;;;;;;5122949;28;19942;-44
2023/09/23 11:39:57;;;;;;;;;;;20.90;76.90;;;;;;5121632;27;19911;-43
2023/09/23 11:42:24;;;;;;;;;;;20.90;76.90;;;;;;5124261;28;19916;-44
2023/09/23 11:44:49;;;;;;;;;;;20.90;76.90;;;;;;5124603;28;19918;-44
2023/09/23 11:47:17;;;;;;;;;;;20.90;76.90;;;;;;5127510;27;19911;-43
2023/09/23 11:49:44;;;;;;;;;;;20.90;76.90;;;;;;5120316;28;20010;-45
2023/09/23 11:52:13;;;;;;;;;;;20.90;76.90;;;;;;5118273;27;19915;-44
2023/09/23 11:54:39;;;;;;;;;;;20.90;76.90;;;;;;5124608;28;19979;-43
2023/09/23 11:57:05;;;;;;;;;;;20.90;76.90;;;;;;5123343;28;19916;-43
2023/09/23 11:59:31;;;;;;;;;;;20.90;77.00;;;;;;5123774;28;19957;-43
2023/09/23 12:01:57;;;;;;;;;;;20.90;77.00;;;;;;5124659;28;19912;-44
2023/09/23 12:04:23;;;;;;;;;;;20.90;77.00;;;;;;5124458;28;19998;-45
2023/09/23 12:06:49;;;;;;;;;;;20.90;77.00;;;;;;5124704;28;19918;-44
2023/09/23 12:09:14;;;;;;;;;;;20.90;77.00;;;;;;5123074;28;19999;-43
2023/09/23 12:11:40;;;;;;;;;;;20.80;77.00;;;;;;5123074;28;19915;-43
2023/09/23 12:14:08;;;;;;;;;;;20.80;77.00;;;;;;5121512;28;19911;-43
2023/09/23 12:16:34;;;;;;;;;;;20.80;77.00;;;;;;5123670;28;20011;-45
2023/09/23 12:19:00;;;;;;;;;;;20.80;77.00;;;;;;5121011;27;19919;-44
2023/09/23 12:21:26;;;;;;;;;;;20.80;77.10;;;;;;5122120;27;19911;-44
2023/09/23 12:23:58;;;;;;;;;;;20.80;77.00;;;;;;5124254;28;19919;-43
2023/09/23 12:26:25;;;;;;;;;;;20.80;77.10;;;;;;5120137;28;19954;-44
2023/09/23 12:28:51;;;;;;;;;;;20.80;77.20;;;;;;5112773;28;19999;-45
2023/09/23 12:31:17;;;;;;;;;;;20.80;77.10;;;;;;5116304;28;19951;-46
2023/09/23 12:33:43;;;;;;;;;;;20.70;77.10;;;;;;5124299;28;19970;-44
2023/09/23 12:36:09;;;;;;;;;;;20.80;77.10;;;;;;5114856;28;19908;-45
2023/09/23 12:38:35;;;;;;;;;;;20.70;77.10;;;;;;5114550;28;20361;-44
2023/09/23 12:41:01;;;;;;;;;;;20.70;77.10;;;;;;5119375;28;19915;-44
2023/09/23 12:43:27;;;;;;;;;;;20.70;77.20;;;;;;5118146;27;20622;-45
2023/09/23 12:45:53;;;;;;;;;;;20.70;77.20;;;;;;5119895;28;19965;-45
2023/09/23 12:48:19;;;;;;;;;;;20.70;77.20;;;;;;5118562;27;19983;-44
2023/09/23 12:50:45;;;;;;;;;;;20.70;77.20;;;;;;5113035;28;20606;-44
2023/09/23 12:53:11;;;;;;;;;;;20.70;77.20;;;;;;5118183;28;20376;-44
2023/09/23 12:55:37;;;;;;;;;;;20.70;77.30;;;;;;5116234;28;19912;-43
2023/09/23 12:58:04;;;;;;;;;;;20.70;77.30;;;;;;5099188;28;19956;-45
2023/09/23 13:00:30;;;;;;;;;;;20.70;77.30;;;;;;5103891;28;19934;-43
2023/09/23 13:02:57;;;;;;;;;;;20.70;77.30;;;;;;5098719;28;19927;-44
2023/09/23 13:05:23;;;;;;;;;;;20.70;77.40;;;;;;5102811;28;19924;-44
2023/09/23 13:07:49;;;;;;;;;;;20.60;77.30;;;;;;5096055;28;19912;-44
2023/09/23 13:10:15;;;;;;;;;;;20.70;77.40;;;;;;5096564;28;19916;-44
2023/09/23 13:12:41;;;;;;;;;;;20.60;77.40;;;;;;5100142;28;19923;-44
2023/09/23 13:15:07;;;;;;;;;;;20.60;77.40;;;;;;5098602;28;19923;-45
2023/09/23 13:17:33;;;;;;;;;;;20.60;77.40;;;;;;5095118;28;19916;-44
2023/09/23 13:19:59;;;;;;;;;;;20.60;77.40;;;;;;5101138;28;20535;-44
2023/09/23 13:22:25;;;;;;;;;;;20.60;77.40;;;;;;5101847;28;19931;-43
2023/09/23 13:24:54;;;;;;;;;;;20.60;77.40;;;;;;5105677;28;19914;-44
2023/09/23 13:27:23;;;;;;;;;;;20.60;77.50;;;;;;5092999;28;19908;-44
2023/09/23 13:29:49;;;;;;;;;;;20.60;77.50;;;;;;5096310;28;19912;-44
2023/09/23 13:32:16;;;;;;;;;;;20.60;77.50;;;;;;5098612;28;19934;-44
2023/09/23 13:34:43;;;;;;;;;;;20.60;77.60;;;;;;5098004;28;19919;-44
2023/09/23 13:37:09;;;;;;;;;;;20.60;78.30;;;;;;5092063;28;19911;-44
2023/09/23 13:39:35;;;;;;;;;;;20.60;77.60;;;;;;5098125;28;19938;-44
2023/09/23 13:42:02;;;;;;;;;;;20.60;77.60;;;;;;5099944;28;19912;-44
2023/09/23 13:44:28;;;;;;;;;;;20.60;77.60;;;;;;5105314;28;19912;-44
2023/09/23 13:46:54;;;;;;;;;;;20.60;77.60;;;;;;5091860;28;19912;-46
2023/09/23 13:49:20;;;;;;;;;;;20.60;77.70;;;;;;5093261;28;19908;-44
2023/09/23 13:51:46;;;;;;;;;;;20.60;77.70;;;;;;5101468;28;19919;-44
2023/09/23 13:54:12;;;;;;;;;;;20.60;77.80;;;;;;5100907;28;19943;-45
2023/09/23 13:56:38;;;;;;;;;;;20.60;77.80;;;;;;5099597;28;19916;-45
2023/09/23 13:59:04;;;;;;;;;;;20.70;77.90;;;;;;5118303;28;20375;-45
2023/09/23 14:01:30;;;;;;;;;;;20.60;77.80;;;;;;5107766;28;19908;-44
2023/09/23 14:03:56;;;;;;;;;;;20.70;77.90;;;;;;5111982;28;21502;-44
2023/09/23 14:06:21;;;;;;;;;;;20.70;78.00;;;;;;5113666;28;19935;-45
2023/09/23 14:08:47;;;;;;;;;;;20.70;78.00;;;;;;5117081;28;20344;-46
2023/09/23 14:11:13;;;;;;;;;;;20.70;78.00;;;;;;5114807;28;19944;-45
2023/09/23 14:13:40;;;;;;;;;;;20.60;77.90;;;;;;5110869;28;19911;-45